sensor_id;sensor_type;location;lat;lon;timestamp;temperature;humidity
23160;DHT22;11748;50.844;4.396;2022-07-29T00:00:37;20.90;91.80
23160;DHT22;11748;50.844;4.396;2022-07-29T00:03:03;20.80;92.00
23160;DHT22;11748;50.844;4.396;2022-07-29T00:05:30;20.70;92.20
23160;DHT22;11748;50.844;4.396;2022-07-29T00:07:56;20.70;92.20
23160;DHT22;11748;50.844;4.396;2022-07-29T00:10:21;20.80;92.10
23160;DHT22;11748;50.844;4.396;2022-07-29T00:12:50;20.80;92.00
23160;DHT22;11748;50.844;4.396;2022-07-29T00:15:16;20.90;91.90
23160;DHT22;11748;50.844;4.396;2022-07-29T00:17:42;20.80;91.90
23160;DHT22;11748;50.844;4.396;2022-07-29T00:20:08;20.90;91.90
23160;DHT22;11748;50.844;4.396;2022-07-29T00:22:37;20.80;92.00
23160;DHT22;11748;50.844;4.396;2022-07-29T00:25:03;20.80;92.10
23160;DHT22;11748;50.844;4.396;2022-07-29T00:27:29;20.80;92.00
23160;DHT22;11748;50.844;4.396;2022-07-29T00:29:54;20.90;91.90
23160;DHT22;11748;50.844;4.396;2022-07-29T00:32:20;20.80;92.00
23160;DHT22;11748;50.844;4.396;2022-07-29T00:34:46;20.70;92.10
23160;DHT22;11748;50.844;4.396;2022-07-29T00:37:30;20.70;92.10
23160;DHT22;11748;50.844;4.396;2022-07-29T00:39:56;20.60;92.60
23160;DHT22;11748;50.844;4.396;2022-07-29T00:42:21;20.50;92.50
23160;DHT22;11748;50.844;4.396;2022-07-29T00:44:47;20.60;92.30
23160;DHT22;11748;50.844;4.396;2022-07-29T00:47:13;20.70;92.60
23160;DHT22;11748;50.844;4.396;2022-07-29T00:49:40;20.60;92.40
23160;DHT22;11748;50.844;4.396;2022-07-29T00:52:07;20.60;92.50
23160;DHT22;11748;50.844;4.396;2022-07-29T00:54:35;20.60;92.40
23160;DHT22;11748;50.844;4.396;2022-07-29T00:57:01;20.50;92.60
23160;DHT22;11748;50.844;4.396;2022-07-29T00:59:27;20.40;92.70
23160;DHT22;11748;50.844;4.396;2022-07-29T01:01:54;20.30;92.80
23160;DHT22;11748;50.844;4.396;2022-07-29T01:04:21;20.30;92.80
23160;DHT22;11748;50.844;4.396;2022-07-29T01:06:48;20.30;92.80
23160;DHT22;11748;50.844;4.396;2022-07-29T01:09:15;20.20;93.00
23160;DHT22;11748;50.844;4.396;2022-07-29T01:11:42;20.30;93.00
23160;DHT22;11748;50.844;4.396;2022-07-29T01:14:09;20.30;93.00
23160;DHT22;11748;50.844;4.396;2022-07-29T01:16:48;20.30;93.00
23160;DHT22;11748;50.844;4.396;2022-07-29T01:19:42;20.20;93.00
23160;DHT22;11748;50.844;4.396;2022-07-29T01:31:08;20.10;93.30
23160;DHT22;11748;50.844;4.396;2022-07-29T01:33:40;20.00;93.50
23160;DHT22;11748;50.844;4.396;2022-07-29T01:37:19;19.80;93.70
23160;DHT22;11748;50.844;4.396;2022-07-29T01:39:34;19.60;94.00
23160;DHT22;11748;50.844;4.396;2022-07-29T01:42:32;19.60;94.10
23160;DHT22;11748;50.844;4.396;2022-07-29T01:45:14;19.50;94.10
23160;DHT22;11748;50.844;4.396;2022-07-29T01:48:34;19.60;94.10
23160;DHT22;11748;50.844;4.396;2022-07-29T01:50:48;19.80;93.80
23160;DHT22;11748;50.844;4.396;2022-07-29T01:53:24;19.70;93.80
23160;DHT22;11748;50.844;4.396;2022-07-29T01:55:52;19.70;94.00
23160;DHT22;11748;50.844;4.396;2022-07-29T01:58:19;19.60;94.00
23160;DHT22;11748;50.844;4.396;2022-07-29T02:00:47;19.40;94.30
23160;DHT22;11748;50.844;4.396;2022-07-29T02:03:14;19.20;94.60
23160;DHT22;11748;50.844;4.396;2022-07-29T02:05:43;19.20;94.70
23160;DHT22;11748;50.844;4.396;2022-07-29T02:08:11;19.30;94.50
23160;DHT22;11748;50.844;4.396;2022-07-29T02:10:40;19.20;94.70
23160;DHT22;11748;50.844;4.396;2022-07-29T02:13:07;19.00;94.90
23160;DHT22;11748;50.844;4.396;2022-07-29T02:15:35;18.80;95.20
23160;DHT22;11748;50.844;4.396;2022-07-29T02:18:11;18.80;95.30
23160;DHT22;11748;50.844;4.396;2022-07-29T02:20:38;18.90;95.40
23160;DHT22;11748;50.844;4.396;2022-07-29T02:23:06;18.80;95.40
23160;DHT22;11748;50.844;4.396;2022-07-29T02:25:32;18.90;95.20
23160;DHT22;11748;50.844;4.396;2022-07-29T02:27:59;19.00;95.10
23160;DHT22;11748;50.844;4.396;2022-07-29T02:30:27;18.90;95.20
23160;DHT22;11748;50.844;4.396;2022-07-29T02:32:54;19.00;95.20
23160;DHT22;11748;50.844;4.396;2022-07-29T02:35:21;19.00;95.10
23160;DHT22;11748;50.844;4.396;2022-07-29T02:37:48;18.90;95.60
23160;DHT22;11748;50.844;4.396;2022-07-29T02:40:34;18.80;95.50
23160;DHT22;11748;50.844;4.396;2022-07-29T02:43:03;18.80;95.60
23160;DHT22;11748;50.844;4.396;2022-07-29T02:45:31;18.60;95.70
23160;DHT22;11748;50.844;4.396;2022-07-29T02:47:58;18.70;95.90
23160;DHT22;11748;50.844;4.396;2022-07-29T02:50:38;18.60;95.80
23160;DHT22;11748;50.844;4.396;2022-07-29T02:53:16;18.50;96.00
23160;DHT22;11748;50.844;4.396;2022-07-29T02:55:57;18.40;96.20
23160;DHT22;11748;50.844;4.396;2022-07-29T02:58:30;18.40;96.20
23160;DHT22;11748;50.844;4.396;2022-07-29T03:01:02;18.50;96.00
23160;DHT22;11748;50.844;4.396;2022-07-29T03:03:37;18.40;96.20
23160;DHT22;11748;50.844;4.396;2022-07-29T03:06:04;18.40;96.30
23160;DHT22;11748;50.844;4.396;2022-07-29T03:08:32;18.50;96.20
23160;DHT22;11748;50.844;4.396;2022-07-29T03:10:58;18.60;96.10
23160;DHT22;11748;50.844;4.396;2022-07-29T03:13:27;18.60;95.90
23160;DHT22;11748;50.844;4.396;2022-07-29T03:15:55;18.70;96.00
23160;DHT22;11748;50.844;4.396;2022-07-29T03:18:21;18.60;96.00
23160;DHT22;11748;50.844;4.396;2022-07-29T03:20:47;18.50;96.00
23160;DHT22;11748;50.844;4.396;2022-07-29T03:23:22;18.50;96.10
23160;DHT22;11748;50.844;4.396;2022-07-29T03:25:49;18.60;96.00
23160;DHT22;11748;50.844;4.396;2022-07-29T03:28:14;18.50;96.10
23160;DHT22;11748;50.844;4.396;2022-07-29T03:30:40;18.50;96.20
23160;DHT22;11748;50.844;4.396;2022-07-29T03:33:06;18.40;96.30
23160;DHT22;11748;50.844;4.396;2022-07-29T03:35:32;18.30;96.40
23160;DHT22;11748;50.844;4.396;2022-07-29T03:37:58;18.40;96.40
23160;DHT22;11748;50.844;4.396;2022-07-29T03:43:10;18.60;96.10
23160;DHT22;11748;50.844;4.396;2022-07-29T03:45:37;18.70;96.00
23160;DHT22;11748;50.844;4.396;2022-07-29T03:48:08;18.80;96.00
23160;DHT22;11748;50.844;4.396;2022-07-29T03:50:35;18.70;95.90
23160;DHT22;11748;50.844;4.396;2022-07-29T03:53:02;18.70;96.00
23160;DHT22;11748;50.844;4.396;2022-07-29T03:55:41;18.70;96.00
23160;DHT22;11748;50.844;4.396;2022-07-29T03:58:09;18.80;95.90
23160;DHT22;11748;50.844;4.396;2022-07-29T04:00:36;18.80;96.00
23160;DHT22;11748;50.844;4.396;2022-07-29T04:03:04;18.70;96.10
23160;DHT22;11748;50.844;4.396;2022-07-29T04:05:29;18.70;96.10
23160;DHT22;11748;50.844;4.396;2022-07-29T04:07:55;18.60;96.30
23160;DHT22;11748;50.844;4.396;2022-07-29T04:10:21;18.30;96.60
23160;DHT22;11748;50.844;4.396;2022-07-29T04:12:49;18.30;96.80
23160;DHT22;11748;50.844;4.396;2022-07-29T04:15:14;18.30;96.90
23160;DHT22;11748;50.844;4.396;2022-07-29T04:17:40;18.10;97.10
23160;DHT22;11748;50.844;4.396;2022-07-29T04:20:06;18.00;97.30
23160;DHT22;11748;50.844;4.396;2022-07-29T04:22:32;18.10;97.40
23160;DHT22;11748;50.844;4.396;2022-07-29T04:24:58;18.00;97.30
23160;DHT22;11748;50.844;4.396;2022-07-29T04:27:25;18.00;97.40
23160;DHT22;11748;50.844;4.396;2022-07-29T04:29:51;18.00;97.50
23160;DHT22;11748;50.844;4.396;2022-07-29T04:32:17;17.90;97.80
23160;DHT22;11748;50.844;4.396;2022-07-29T04:34:42;17.80;98.10
23160;DHT22;11748;50.844;4.396;2022-07-29T04:37:08;17.70;98.20
23160;DHT22;11748;50.844;4.396;2022-07-29T04:39:35;17.70;98.30
23160;DHT22;11748;50.844;4.396;2022-07-29T04:42:00;17.70;98.40
23160;DHT22;11748;50.844;4.396;2022-07-29T04:44:26;17.70;98.50
23160;DHT22;11748;50.844;4.396;2022-07-29T04:46:52;17.70;98.60
23160;DHT22;11748;50.844;4.396;2022-07-29T04:49:17;17.60;98.80
23160;DHT22;11748;50.844;4.396;2022-07-29T04:51:44;17.70;98.80
23160;DHT22;11748;50.844;4.396;2022-07-29T04:54:10;17.70;98.70
23160;DHT22;11748;50.844;4.396;2022-07-29T04:56:35;17.80;98.70
23160;DHT22;11748;50.844;4.396;2022-07-29T04:59:01;17.80;98.70
23160;DHT22;11748;50.844;4.396;2022-07-29T05:01:27;17.80;98.70
23160;DHT22;11748;50.844;4.396;2022-07-29T05:03:53;17.80;98.70
23160;DHT22;11748;50.844;4.396;2022-07-29T05:06:19;17.80;98.80
23160;DHT22;11748;50.844;4.396;2022-07-29T05:08:45;17.70;99.00
23160;DHT22;11748;50.844;4.396;2022-07-29T05:11:11;17.80;98.80
23160;DHT22;11748;50.844;4.396;2022-07-29T05:13:37;17.80;99.00
23160;DHT22;11748;50.844;4.396;2022-07-29T05:16:02;17.80;99.00
23160;DHT22;11748;50.844;4.396;2022-07-29T05:18:28;17.90;98.90
23160;DHT22;11748;50.844;4.396;2022-07-29T05:20:54;18.10;98.70
23160;DHT22;11748;50.844;4.396;2022-07-29T05:23:21;18.10;98.60
23160;DHT22;11748;50.844;4.396;2022-07-29T05:25:47;18.20;98.60
23160;DHT22;11748;50.844;4.396;2022-07-29T05:28:13;18.20;98.50
23160;DHT22;11748;50.844;4.396;2022-07-29T05:30:38;18.20;98.50
23160;DHT22;11748;50.844;4.396;2022-07-29T05:33:04;18.30;98.50
23160;DHT22;11748;50.844;4.396;2022-07-29T05:35:30;18.50;98.40
23160;DHT22;11748;50.844;4.396;2022-07-29T05:37:56;18.70;98.10
23160;DHT22;11748;50.844;4.396;2022-07-29T05:40:22;18.90;97.70
23160;DHT22;11748;50.844;4.396;2022-07-29T05:42:48;19.10;97.30
23160;DHT22;11748;50.844;4.396;2022-07-29T05:45:13;19.10;97.30
23160;DHT22;11748;50.844;4.396;2022-07-29T05:47:39;19.20;97.10
23160;DHT22;11748;50.844;4.396;2022-07-29T05:50:06;19.30;97.10
23160;DHT22;11748;50.844;4.396;2022-07-29T05:52:32;19.30;97.10
23160;DHT22;11748;50.844;4.396;2022-07-29T05:54:58;19.40;97.00
23160;DHT22;11748;50.844;4.396;2022-07-29T05:57:24;19.30;97.10
23160;DHT22;11748;50.844;4.396;2022-07-29T05:59:50;19.40;97.10
23160;DHT22;11748;50.844;4.396;2022-07-29T06:02:17;19.30;97.20
23160;DHT22;11748;50.844;4.396;2022-07-29T06:04:43;19.30;97.10
23160;DHT22;11748;50.844;4.396;2022-07-29T06:07:09;19.30;97.30
23160;DHT22;11748;50.844;4.396;2022-07-29T06:09:38;19.10;97.40
23160;DHT22;11748;50.844;4.396;2022-07-29T06:12:04;19.20;97.50
23160;DHT22;11748;50.844;4.396;2022-07-29T06:14:30;19.20;97.60
23160;DHT22;11748;50.844;4.396;2022-07-29T06:16:56;19.20;97.60
23160;DHT22;11748;50.844;4.396;2022-07-29T06:19:21;19.30;97.60
23160;DHT22;11748;50.844;4.396;2022-07-29T06:21:47;19.30;97.70
23160;DHT22;11748;50.844;4.396;2022-07-29T06:24:14;19.50;97.50
23160;DHT22;11748;50.844;4.396;2022-07-29T06:26:41;20.20;97.30
23160;DHT22;11748;50.844;4.396;2022-07-29T06:29:09;21.50;95.60
23160;DHT22;11748;50.844;4.396;2022-07-29T06:31:36;23.00;93.90
23160;DHT22;11748;50.844;4.396;2022-07-29T06:34:02;24.00;92.30
23160;DHT22;11748;50.844;4.396;2022-07-29T06:36:28;24.50;91.30
23160;DHT22;11748;50.844;4.396;2022-07-29T06:38:54;24.90;90.70
23160;DHT22;11748;50.844;4.396;2022-07-29T06:41:20;24.90;90.50
23160;DHT22;11748;50.844;4.396;2022-07-29T06:43:46;24.40;90.80
23160;DHT22;11748;50.844;4.396;2022-07-29T06:46:14;24.20;90.80
23160;DHT22;11748;50.844;4.396;2022-07-29T06:48:42;23.40;91.70
23160;DHT22;11748;50.844;4.396;2022-07-29T06:51:11;22.50;92.90
23160;DHT22;11748;50.844;4.396;2022-07-29T06:54:08;21.90;93.70
23160;DHT22;11748;50.844;4.396;2022-07-29T06:56:34;21.40;94.60
23160;DHT22;11748;50.844;4.396;2022-07-29T06:59:03;21.50;94.50
23160;DHT22;11748;50.844;4.396;2022-07-29T07:01:28;21.30;94.70
23160;DHT22;11748;50.844;4.396;2022-07-29T07:03:54;21.20;95.20
23160;DHT22;11748;50.844;4.396;2022-07-29T07:06:20;21.40;95.10
23160;DHT22;11748;50.844;4.396;2022-07-29T07:08:46;21.80;94.70
23160;DHT22;11748;50.844;4.396;2022-07-29T07:11:14;22.30;94.10
23160;DHT22;11748;50.844;4.396;2022-07-29T07:13:39;22.60;93.50
23160;DHT22;11748;50.844;4.396;2022-07-29T07:16:05;22.40;93.50
23160;DHT22;11748;50.844;4.396;2022-07-29T07:18:31;22.50;93.60
23160;DHT22;11748;50.844;4.396;2022-07-29T07:20:57;22.80;93.20
23160;DHT22;11748;50.844;4.396;2022-07-29T07:23:24;22.80;93.00
23160;DHT22;11748;50.844;4.396;2022-07-29T07:25:50;22.70;93.20
23160;DHT22;11748;50.844;4.396;2022-07-29T07:28:16;22.50;93.40
23160;DHT22;11748;50.844;4.396;2022-07-29T07:30:42;22.40;93.50
23160;DHT22;11748;50.844;4.396;2022-07-29T07:33:08;22.10;93.90
23160;DHT22;11748;50.844;4.396;2022-07-29T07:35:35;22.00;94.00
23160;DHT22;11748;50.844;4.396;2022-07-29T07:38:00;22.00;94.00
23160;DHT22;11748;50.844;4.396;2022-07-29T07:40:32;22.00;94.10
23160;DHT22;11748;50.844;4.396;2022-07-29T07:42:58;21.80;94.40
23160;DHT22;11748;50.844;4.396;2022-07-29T07:45:25;21.60;94.70
23160;DHT22;11748;50.844;4.396;2022-07-29T07:47:52;21.60;94.80
23160;DHT22;11748;50.844;4.396;2022-07-29T07:50:20;21.50;94.90
23160;DHT22;11748;50.844;4.396;2022-07-29T07:52:51;21.70;94.60
23160;DHT22;11748;50.844;4.396;2022-07-29T07:55:17;21.60;94.80
23160;DHT22;11748;50.844;4.396;2022-07-29T07:57:45;21.40;95.20
23160;DHT22;11748;50.844;4.396;2022-07-29T08:00:15;21.30;95.30
23160;DHT22;11748;50.844;4.396;2022-07-29T08:02:43;21.30;95.40
23160;DHT22;11748;50.844;4.396;2022-07-29T08:05:10;21.20;95.70
23160;DHT22;11748;50.844;4.396;2022-07-29T08:07:37;21.00;96.00
23160;DHT22;11748;50.844;4.396;2022-07-29T08:10:03;21.00;96.00
23160;DHT22;11748;50.844;4.396;2022-07-29T08:12:29;21.10;96.10
23160;DHT22;11748;50.844;4.396;2022-07-29T08:14:55;21.10;96.20
23160;DHT22;11748;50.844;4.396;2022-07-29T08:17:21;21.10;96.00
23160;DHT22;11748;50.844;4.396;2022-07-29T08:19:48;21.10;96.20
23160;DHT22;11748;50.844;4.396;2022-07-29T08:22:15;21.20;96.30
23160;DHT22;11748;50.844;4.396;2022-07-29T08:24:41;21.30;96.20
23160;DHT22;11748;50.844;4.396;2022-07-29T08:27:13;21.40;95.90
23160;DHT22;11748;50.844;4.396;2022-07-29T08:29:39;21.50;95.80
23160;DHT22;11748;50.844;4.396;2022-07-29T08:32:07;21.60;95.70
23160;DHT22;11748;50.844;4.396;2022-07-29T08:34:33;21.60;95.80
23160;DHT22;11748;50.844;4.396;2022-07-29T08:36:59;21.70;95.60
23160;DHT22;11748;50.844;4.396;2022-07-29T08:39:25;21.80;95.50
23160;DHT22;11748;50.844;4.396;2022-07-29T08:41:51;21.80;95.50
23160;DHT22;11748;50.844;4.396;2022-07-29T08:44:18;22.00;95.40
23160;DHT22;11748;50.844;4.396;2022-07-29T08:46:44;21.90;95.50
23160;DHT22;11748;50.844;4.396;2022-07-29T08:49:10;22.00;95.40
23160;DHT22;11748;50.844;4.396;2022-07-29T08:51:36;22.10;95.30
23160;DHT22;11748;50.844;4.396;2022-07-29T08:54:05;22.40;94.90
23160;DHT22;11748;50.844;4.396;2022-07-29T08:56:32;22.50;94.60
23160;DHT22;11748;50.844;4.396;2022-07-29T08:58:59;22.50;94.60
23160;DHT22;11748;50.844;4.396;2022-07-29T09:01:29;22.40;94.40
23160;DHT22;11748;50.844;4.396;2022-07-29T09:03:58;22.60;94.10
23160;DHT22;11748;50.844;4.396;2022-07-29T09:06:24;22.60;94.10
23160;DHT22;11748;50.844;4.396;2022-07-29T09:08:54;22.60;93.90
23160;DHT22;11748;50.844;4.396;2022-07-29T09:11:21;22.40;93.90
23160;DHT22;11748;50.844;4.396;2022-07-29T09:13:47;22.40;94.30
23160;DHT22;11748;50.844;4.396;2022-07-29T09:16:14;22.50;94.10
23160;DHT22;11748;50.844;4.396;2022-07-29T09:18:43;22.60;93.90
23160;DHT22;11748;50.844;4.396;2022-07-29T09:21:11;22.70;93.90
23160;DHT22;11748;50.844;4.396;2022-07-29T09:24:05;22.80;94.20
23160;DHT22;11748;50.844;4.396;2022-07-29T09:26:34;22.80;93.50
23160;DHT22;11748;50.844;4.396;2022-07-29T09:29:10;22.90;93.10
23160;DHT22;11748;50.844;4.396;2022-07-29T09:31:43;22.90;93.20
23160;DHT22;11748;50.844;4.396;2022-07-29T09:34:11;22.90;93.50
23160;DHT22;11748;50.844;4.396;2022-07-29T09:39:07;23.00;93.20
23160;DHT22;11748;50.844;4.396;2022-07-29T09:41:53;23.20;92.00
23160;DHT22;11748;50.844;4.396;2022-07-29T09:44:20;23.40;91.20
23160;DHT22;11748;50.844;4.396;2022-07-29T09:49:20;23.70;91.40
23160;DHT22;11748;50.844;4.396;2022-07-29T09:51:46;23.90;91.70
23160;DHT22;11748;50.844;4.396;2022-07-29T09:56:49;23.80;91.80
23160;DHT22;11748;50.844;4.396;2022-07-29T09:59:16;23.80;92.00
23160;DHT22;11748;50.844;4.396;2022-07-29T10:01:42;23.80;92.00
23160;DHT22;11748;50.844;4.396;2022-07-29T10:04:08;23.80;92.20
23160;DHT22;11748;50.844;4.396;2022-07-29T10:06:34;23.80;91.80
23160;DHT22;11748;50.844;4.396;2022-07-29T10:09:07;23.80;91.70
23160;DHT22;11748;50.844;4.396;2022-07-29T10:11:34;23.70;92.00
23160;DHT22;11748;50.844;4.396;2022-07-29T10:14:01;23.80;91.90
23160;DHT22;11748;50.844;4.396;2022-07-29T10:16:28;23.90;91.70
23160;DHT22;11748;50.844;4.396;2022-07-29T10:18:58;24.00;91.60
23160;DHT22;11748;50.844;4.396;2022-07-29T10:21:27;23.80;91.60
23160;DHT22;11748;50.844;4.396;2022-07-29T10:23:57;24.10;91.40
23160;DHT22;11748;50.844;4.396;2022-07-29T10:26:24;24.20;91.00
23160;DHT22;11748;50.844;4.396;2022-07-29T10:28:50;24.20;90.90
23160;DHT22;11748;50.844;4.396;2022-07-29T10:31:33;24.20;91.20
23160;DHT22;11748;50.844;4.396;2022-07-29T10:34:13;24.20;91.00
23160;DHT22;11748;50.844;4.396;2022-07-29T10:42:25;24.40;90.40
23160;DHT22;11748;50.844;4.396;2022-07-29T10:44:52;25.00;89.30
23160;DHT22;11748;50.844;4.396;2022-07-29T10:47:23;25.10;89.10
23160;DHT22;11748;50.844;4.396;2022-07-29T10:49:59;25.30;88.20
23160;DHT22;11748;50.844;4.396;2022-07-29T10:52:54;25.20;88.00
23160;DHT22;11748;50.844;4.396;2022-07-29T10:55:39;25.20;86.90
23160;DHT22;11748;50.844;4.396;2022-07-29T11:01:27;25.00;85.90
23160;DHT22;11748;50.844;4.396;2022-07-29T11:04:04;24.80;86.90
23160;DHT22;11748;50.844;4.396;2022-07-29T11:09:30;25.00;86.70
23160;DHT22;11748;50.844;4.396;2022-07-29T11:11:58;25.10;85.60
23160;DHT22;11748;50.844;4.396;2022-07-29T11:17:18;25.30;85.10
23160;DHT22;11748;50.844;4.396;2022-07-29T11:19:44;25.20;85.80
23160;DHT22;11748;50.844;4.396;2022-07-29T11:22:10;25.10;85.50
23160;DHT22;11748;50.844;4.396;2022-07-29T11:24:38;25.20;85.30
23160;DHT22;11748;50.844;4.396;2022-07-29T11:29:58;25.60;83.10
23160;DHT22;11748;50.844;4.396;2022-07-29T11:32:36;26.00;82.80
23160;DHT22;11748;50.844;4.396;2022-07-29T11:35:20;26.30;82.00
23160;DHT22;11748;50.844;4.396;2022-07-29T11:43:49;26.20;82.70
23160;DHT22;11748;50.844;4.396;2022-07-29T11:49:03;26.70;81.30
23160;DHT22;11748;50.844;4.396;2022-07-29T11:51:30;26.70;81.60
23160;DHT22;11748;50.844;4.396;2022-07-29T11:53:58;26.50;81.80
23160;DHT22;11748;50.844;4.396;2022-07-29T11:56:42;26.30;81.30
23160;DHT22;11748;50.844;4.396;2022-07-29T11:59:10;26.40;81.40
23160;DHT22;11748;50.844;4.396;2022-07-29T12:01:55;26.40;81.30
23160;DHT22;11748;50.844;4.396;2022-07-29T12:04:21;26.30;81.40
23160;DHT22;11748;50.844;4.396;2022-07-29T12:06:53;26.90;80.10
23160;DHT22;11748;50.844;4.396;2022-07-29T12:09:22;27.10;79.70
23160;DHT22;11748;50.844;4.396;2022-07-29T12:11:49;27.60;79.30
23160;DHT22;11748;50.844;4.396;2022-07-29T12:14:28;27.90;78.80
23160;DHT22;11748;50.844;4.396;2022-07-29T12:16:55;28.20;76.80
23160;DHT22;11748;50.844;4.396;2022-07-29T12:19:21;27.80;77.50
23160;DHT22;11748;50.844;4.396;2022-07-29T12:21:48;27.10;78.50
23160;DHT22;11748;50.844;4.396;2022-07-29T12:24:14;27.20;78.60
23160;DHT22;11748;50.844;4.396;2022-07-29T12:29:19;27.20;78.50
23160;DHT22;11748;50.844;4.396;2022-07-29T12:31:45;27.10;78.30
23160;DHT22;11748;50.844;4.396;2022-07-29T12:34:15;26.80;77.70
23160;DHT22;11748;50.844;4.396;2022-07-29T12:36:42;27.10;77.10
23160;DHT22;11748;50.844;4.396;2022-07-29T12:39:09;27.60;76.90
23160;DHT22;11748;50.844;4.396;2022-07-29T12:41:36;27.50;77.20
23160;DHT22;11748;50.844;4.396;2022-07-29T12:44:02;27.10;78.00
23160;DHT22;11748;50.844;4.396;2022-07-29T12:46:28;27.20;78.20
23160;DHT22;11748;50.844;4.396;2022-07-29T12:48:54;27.20;77.30
23160;DHT22;11748;50.844;4.396;2022-07-29T12:51:38;27.50;76.50
23160;DHT22;11748;50.844;4.396;2022-07-29T12:54:12;27.90;75.80
23160;DHT22;11748;50.844;4.396;2022-07-29T12:56:40;27.80;76.00
23160;DHT22;11748;50.844;4.396;2022-07-29T12:59:19;27.60;76.00
23160;DHT22;11748;50.844;4.396;2022-07-29T13:01:47;27.90;75.60
23160;DHT22;11748;50.844;4.396;2022-07-29T13:04:31;28.30;75.00
23160;DHT22;11748;50.844;4.396;2022-07-29T13:07:07;28.20;75.00
23160;DHT22;11748;50.844;4.396;2022-07-29T13:09:37;27.90;75.40
23160;DHT22;11748;50.844;4.396;2022-07-29T13:12:08;27.90;75.60
23160;DHT22;11748;50.844;4.396;2022-07-29T13:14:40;27.70;76.30
23160;DHT22;11748;50.844;4.396;2022-07-29T13:17:10;27.60;76.80
23160;DHT22;11748;50.844;4.396;2022-07-29T13:19:40;27.50;76.60
23160;DHT22;11748;50.844;4.396;2022-07-29T13:22:08;27.40;76.90
23160;DHT22;11748;50.844;4.396;2022-07-29T13:24:52;27.10;77.10
23160;DHT22;11748;50.844;4.396;2022-07-29T13:27:23;27.00;77.30
23160;DHT22;11748;50.844;4.396;2022-07-29T13:29:49;27.10;77.50
23160;DHT22;11748;50.844;4.396;2022-07-29T13:32:19;27.20;77.50
23160;DHT22;11748;50.844;4.396;2022-07-29T13:34:47;27.40;76.50
23160;DHT22;11748;50.844;4.396;2022-07-29T13:37:16;27.40;76.50
23160;DHT22;11748;50.844;4.396;2022-07-29T13:39:42;27.70;76.20
23160;DHT22;11748;50.844;4.396;2022-07-29T13:42:08;27.50;76.00
23160;DHT22;11748;50.844;4.396;2022-07-29T13:44:35;27.60;76.20
23160;DHT22;11748;50.844;4.396;2022-07-29T13:47:01;27.70;76.30
23160;DHT22;11748;50.844;4.396;2022-07-29T13:49:27;27.70;75.40
23160;DHT22;11748;50.844;4.396;2022-07-29T13:51:53;27.50;75.70
23160;DHT22;11748;50.844;4.396;2022-07-29T13:54:20;27.70;75.00
23160;DHT22;11748;50.844;4.396;2022-07-29T13:56:45;27.80;75.60
23160;DHT22;11748;50.844;4.396;2022-07-29T13:59:12;27.60;76.30
23160;DHT22;11748;50.844;4.396;2022-07-29T14:01:38;27.50;76.70
23160;DHT22;11748;50.844;4.396;2022-07-29T14:04:07;27.40;76.70
23160;DHT22;11748;50.844;4.396;2022-07-29T14:06:33;27.50;75.90
23160;DHT22;11748;50.844;4.396;2022-07-29T14:08:58;27.40;76.00
23160;DHT22;11748;50.844;4.396;2022-07-29T14:11:24;27.40;75.40
23160;DHT22;11748;50.844;4.396;2022-07-29T14:13:50;27.70;75.20
23160;DHT22;11748;50.844;4.396;2022-07-29T14:16:15;27.50;73.90
23160;DHT22;11748;50.844;4.396;2022-07-29T14:18:41;27.40;74.00
23160;DHT22;11748;50.844;4.396;2022-07-29T14:21:08;27.50;73.90
23160;DHT22;11748;50.844;4.396;2022-07-29T14:23:35;27.40;73.40
23160;DHT22;11748;50.844;4.396;2022-07-29T14:26:02;27.20;74.10
23160;DHT22;11748;50.844;4.396;2022-07-29T14:28:28;27.00;73.50
23160;DHT22;11748;50.844;4.396;2022-07-29T14:30:54;27.10;74.20
23160;DHT22;11748;50.844;4.396;2022-07-29T14:33:20;27.10;75.50
23160;DHT22;11748;50.844;4.396;2022-07-29T14:35:46;27.50;74.90
23160;DHT22;11748;50.844;4.396;2022-07-29T14:38:12;27.20;74.60
23160;DHT22;11748;50.844;4.396;2022-07-29T14:40:38;27.00;75.90
23160;DHT22;11748;50.844;4.396;2022-07-29T14:43:04;26.90;75.20
23160;DHT22;11748;50.844;4.396;2022-07-29T14:45:30;27.10;75.20
23160;DHT22;11748;50.844;4.396;2022-07-29T14:47:59;27.00;74.70
23160;DHT22;11748;50.844;4.396;2022-07-29T14:50:25;27.10;74.70
23160;DHT22;11748;50.844;4.396;2022-07-29T14:52:52;27.20;74.60
23160;DHT22;11748;50.844;4.396;2022-07-29T14:55:18;27.60;74.40
23160;DHT22;11748;50.844;4.396;2022-07-29T14:57:43;27.60;73.70
23160;DHT22;11748;50.844;4.396;2022-07-29T15:00:16;27.50;73.00
23160;DHT22;11748;50.844;4.396;2022-07-29T15:02:42;27.40;75.10
23160;DHT22;11748;50.844;4.396;2022-07-29T15:05:10;27.40;75.70
23160;DHT22;11748;50.844;4.396;2022-07-29T15:07:36;27.30;75.80
23160;DHT22;11748;50.844;4.396;2022-07-29T15:10:03;27.10;75.20
23160;DHT22;11748;50.844;4.396;2022-07-29T15:12:31;27.00;75.40
23160;DHT22;11748;50.844;4.396;2022-07-29T15:14:57;27.10;74.70
23160;DHT22;11748;50.844;4.396;2022-07-29T15:17:26;27.00;75.40
23160;DHT22;11748;50.844;4.396;2022-07-29T15:19:51;26.90;76.40
23160;DHT22;11748;50.844;4.396;2022-07-29T15:22:17;26.80;76.80
23160;DHT22;11748;50.844;4.396;2022-07-29T15:24:46;26.60;76.90
23160;DHT22;11748;50.844;4.396;2022-07-29T15:27:12;26.70;77.00
23160;DHT22;11748;50.844;4.396;2022-07-29T15:29:41;26.50;77.40
23160;DHT22;11748;50.844;4.396;2022-07-29T15:32:07;26.50;77.70
23160;DHT22;11748;50.844;4.396;2022-07-29T15:34:33;26.70;77.30
23160;DHT22;11748;50.844;4.396;2022-07-29T15:36:59;26.90;77.20
23160;DHT22;11748;50.844;4.396;2022-07-29T15:39:25;27.10;77.40
23160;DHT22;11748;50.844;4.396;2022-07-29T15:41:52;27.10;75.10
23160;DHT22;11748;50.844;4.396;2022-07-29T15:44:19;27.10;74.50
23160;DHT22;11748;50.844;4.396;2022-07-29T15:46:45;27.40;74.10
23160;DHT22;11748;50.844;4.396;2022-07-29T15:49:35;27.70;73.80
23160;DHT22;11748;50.844;4.396;2022-07-29T15:52:03;27.60;74.00
23160;DHT22;11748;50.844;4.396;2022-07-29T15:54:33;27.60;73.50
23160;DHT22;11748;50.844;4.396;2022-07-29T15:57:00;27.50;72.40
23160;DHT22;11748;50.844;4.396;2022-07-29T15:59:25;27.30;72.80
23160;DHT22;11748;50.844;4.396;2022-07-29T16:01:51;27.20;73.40
23160;DHT22;11748;50.844;4.396;2022-07-29T16:04:17;27.20;74.30
23160;DHT22;11748;50.844;4.396;2022-07-29T16:06:44;27.60;73.70
23160;DHT22;11748;50.844;4.396;2022-07-29T16:09:10;27.50;73.70
23160;DHT22;11748;50.844;4.396;2022-07-29T16:11:36;27.60;73.90
23160;DHT22;11748;50.844;4.396;2022-07-29T16:14:03;27.40;73.70
23160;DHT22;11748;50.844;4.396;2022-07-29T16:16:29;27.40;73.60
23160;DHT22;11748;50.844;4.396;2022-07-29T16:18:55;27.10;73.80
23160;DHT22;11748;50.844;4.396;2022-07-29T16:21:20;27.30;73.60
23160;DHT22;11748;50.844;4.396;2022-07-29T16:23:50;27.70;73.30
23160;DHT22;11748;50.844;4.396;2022-07-29T16:26:16;27.80;72.70